createdAt,value
2017-08-23T05:30:13.059Z,93.6
2017-08-23T05:31:14.687Z,92.8
2017-08-23T05:33:06.388Z,92.0
2017-08-23T05:34:08.021Z,91.9
2017-08-23T05:35:59.759Z,92.2
2017-08-23T05:37:01.386Z,91.6
2017-08-23T05:38:53.089Z,92.0
2017-08-23T05:39:54.709Z,91.8
2017-08-23T05:41:46.455Z,91.5
2017-08-23T05:42:48.076Z,91.0
2017-08-23T05:44:39.796Z,90.3
2017-08-23T05:45:41.421Z,90.5
2017-08-23T05:47:33.165Z,90.4
2017-08-23T05:48:34.793Z,90.4
2017-08-23T05:50:26.504Z,90.0
2017-08-23T05:51:28.136Z,89.9
2017-08-23T05:53:19.878Z,89.9
2017-08-23T05:54:21.503Z,89.0
2017-08-23T05:56:13.206Z,89.0
2017-08-23T05:57:14.837Z,88.7
2017-08-23T05:59:06.570Z,87.8
2017-08-23T06:00:08.204Z,87.6
2017-08-23T06:01:59.907Z,87.8
2017-08-23T06:03:01.531Z,87.0
2017-08-23T06:04:53.265Z,86.8
2017-08-23T06:05:54.893Z,86.9
2017-08-23T06:07:46.605Z,85.8
2017-08-23T06:08:48.233Z,85.8
2017-08-23T06:10:39.989Z,85.8
2017-08-23T06:11:41.594Z,85.8
2017-08-23T06:13:33.296Z,84.6
2017-08-23T06:14:34.919Z,84.1
2017-08-23T06:16:26.658Z,83.7
2017-08-23T06:17:28.284Z,84.0
2017-08-23T06:19:19.987Z,81.3
2017-08-23T06:20:21.620Z,80.4
2017-08-23T06:22:13.363Z,77.9
2017-08-23T06:23:15.004Z,77.2
2017-08-23T06:25:06.715Z,75.8
2017-08-23T06:26:08.349Z,75.0
2017-08-23T06:28:00.096Z,73.2
2017-08-23T06:29:01.721Z,71.8
2017-08-23T06:30:53.443Z,71.0
2017-08-23T06:31:55.076Z,69.2
2017-08-23T06:33:46.816Z,66.3
2017-08-23T06:34:48.445Z,64.0
2017-08-23T06:36:40.164Z,58.7
2017-08-23T06:37:41.809Z,56.7
2017-08-23T06:39:33.560Z,51.6
2017-08-23T06:40:35.191Z,50.6
2017-08-23T06:42:26.904Z,47.7
2017-08-23T06:43:28.537Z,46.5
2017-08-23T06:45:20.289Z,44.7
2017-08-23T06:46:21.917Z,44.5
2017-08-23T06:48:13.635Z,43.5
2017-08-23T06:49:15.265Z,43.4
2017-08-23T06:51:07.018Z,41.2
2017-08-23T06:52:08.663Z,40.4
2017-08-23T06:54:00.372Z,37.6
2017-08-23T06:55:02.004Z,37.7
2017-08-23T06:56:53.773Z,35.2
2017-08-23T06:57:55.393Z,34.2
2017-08-23T06:59:47.106Z,32.6
2017-08-23T07:00:48.752Z,31.5
2017-08-23T07:02:40.500Z,31.4
2017-08-23T07:03:42.146Z,29.9
2017-08-23T07:05:33.868Z,30.0
2017-08-23T07:06:35.505Z,28.5
2017-08-23T07:08:27.257Z,28.7
2017-08-23T07:09:28.895Z,29.2
2017-08-23T07:11:20.623Z,27.5
2017-08-23T07:12:22.259Z,26.9
2017-08-23T07:14:14.021Z,27.1
2017-08-23T07:15:15.655Z,26.7
2017-08-23T07:17:07.379Z,26.0
2017-08-23T07:18:09.028Z,26.6
2017-08-23T07:20:00.787Z,26.6
2017-08-23T07:21:02.435Z,26.5
2017-08-23T07:22:54.165Z,26.8
2017-08-23T07:23:55.803Z,26.7
2017-08-23T07:25:47.566Z,25.7
2017-08-23T07:26:49.210Z,25.7
2017-08-23T07:28:40.939Z,26.8
2017-08-23T07:29:42.576Z,26.7
2017-08-23T07:31:34.342Z,26.2
2017-08-23T07:32:35.984Z,25.9
2017-08-23T07:34:27.706Z,25.5
2017-08-23T07:35:29.362Z,25.6
2017-08-23T07:37:21.133Z,23.9
2017-08-23T07:38:22.772Z,23.5
2017-08-23T07:40:14.500Z,23.9
2017-08-23T07:41:16.143Z,23.9
2017-08-23T07:43:07.907Z,21.8
2017-08-23T07:44:09.548Z,22.0
2017-08-23T07:46:01.281Z,18.6
2017-08-23T07:47:02.921Z,18.4
2017-08-23T07:48:54.684Z,18.3
2017-08-23T07:49:56.327Z,17.9
2017-08-23T07:51:48.066Z,17.4
2017-08-23T07:52:49.707Z,16.8
2017-08-23T07:54:41.480Z,16.4
2017-08-23T07:55:43.117Z,15.6
2017-08-23T07:57:34.847Z,15.5
2017-08-23T07:58:36.500Z,15.4
2017-08-23T08:00:28.264Z,13.7
2017-08-23T08:01:29.905Z,13.8
2017-08-23T08:03:21.642Z,14.7
2017-08-23T08:04:24.061Z,14.7
2017-08-23T08:06:15.827Z,13.7
2017-08-23T08:07:17.482Z,13.3
2017-08-23T08:09:09.215Z,14.1
2017-08-23T08:10:10.858Z,14.3
2017-08-23T08:12:02.637Z,13.0
2017-08-23T08:13:04.282Z,12.7
2017-08-23T08:14:56.017Z,13.1
2017-08-23T08:15:57.675Z,12.3
2017-08-23T08:17:49.448Z,13.0
2017-08-23T08:18:51.104Z,12.8
2017-08-23T08:20:42.851Z,11.9
2017-08-23T08:21:44.493Z,11.5
2017-08-23T08:23:36.260Z,12.8
2017-08-23T08:24:37.903Z,13.1
2017-08-23T08:26:29.654Z,13.1
2017-08-23T08:27:31.296Z,12.8
2017-08-23T08:29:23.080Z,12.2
2017-08-23T08:30:24.720Z,12.8
2017-08-23T08:32:16.472Z,13.1
2017-08-23T08:33:18.114Z,13.4
2017-08-23T08:35:09.882Z,12.2
2017-08-23T08:36:11.527Z,12.6
2017-08-23T08:38:03.272Z,13.1
2017-08-23T08:39:04.914Z,13.3
2017-08-23T08:40:56.686Z,13.6
2017-08-23T08:41:58.340Z,13.8
2017-08-23T08:43:50.079Z,13.7
2017-08-23T08:44:51.727Z,13.6
2017-08-23T08:46:43.498Z,13.8
2017-08-23T08:47:45.139Z,13.9
2017-08-23T08:49:36.878Z,13.3
2017-08-23T08:50:38.527Z,12.9
2017-08-23T08:52:30.298Z,12.3
2017-08-23T08:53:31.943Z,12.5
2017-08-23T08:55:24.528Z,12.3
2017-08-23T08:56:26.179Z,12.9
2017-08-23T08:58:17.951Z,13.0
2017-08-23T08:59:19.599Z,12.8
2017-08-23T09:01:11.334Z,13.0
2017-08-23T09:02:12.989Z,12.8
2017-08-23T09:04:04.758Z,12.9
2017-08-23T09:05:06.404Z,12.3
2017-08-23T09:06:58.145Z,12.4
2017-08-23T09:07:59.788Z,12.4
2017-08-23T09:09:51.565Z,13.0
2017-08-23T09:10:53.220Z,12.3
2017-08-23T09:12:44.961Z,13.3
2017-08-23T09:13:46.620Z,12.8
2017-08-23T09:15:38.385Z,12.8
2017-08-23T09:16:40.037Z,13.6
2017-08-23T09:18:31.784Z,14.6
2017-08-23T09:19:33.424Z,14.1
2017-08-23T09:21:25.197Z,13.5
2017-08-23T09:22:26.852Z,12.9
2017-08-23T09:24:18.596Z,13.7
2017-08-23T09:25:20.252Z,14.5
2017-08-23T09:27:12.020Z,13.5
2017-08-23T09:28:13.668Z,14.2
2017-08-23T09:30:05.402Z,15.1
2017-08-23T09:31:07.059Z,14.0
2017-08-23T09:32:58.828Z,13.1
2017-08-23T09:34:00.474Z,13.5
2017-08-23T09:35:52.217Z,14.4
2017-08-23T09:36:53.861Z,14.4
2017-08-23T09:38:45.641Z,13.6
2017-08-23T09:39:47.300Z,13.2
2017-08-23T09:41:39.039Z,15.2
2017-08-23T09:42:40.720Z,16.1
2017-08-23T09:44:32.488Z,15.6
2017-08-23T09:45:34.146Z,16.6
2017-08-23T09:47:25.884Z,16.8
2017-08-23T09:48:27.531Z,17.1
2017-08-23T09:50:19.303Z,15.8
2017-08-23T09:51:20.964Z,16.4
2017-08-23T09:53:12.707Z,15.3
2017-08-23T09:54:14.351Z,15.8
2017-08-23T09:56:06.130Z,17.1
2017-08-23T09:57:07.777Z,17.3
2017-08-23T09:58:59.530Z,15.4
2017-08-23T10:00:01.185Z,16.5
2017-08-23T10:01:52.955Z,15.5
2017-08-23T10:02:54.606Z,15.0
2017-08-23T10:04:46.348Z,16.9
2017-08-23T10:05:47.991Z,17.0
2017-08-23T10:07:39.773Z,15.4
2017-08-23T10:08:41.423Z,14.9
2017-08-23T10:10:33.166Z,16.8
2017-08-23T10:11:34.815Z,16.5
2017-08-23T10:13:26.583Z,16.5
2017-08-23T10:14:28.241Z,17.3
2017-08-23T10:16:19.973Z,17.0
2017-08-23T10:17:21.619Z,16.8
2017-08-23T10:19:13.406Z,17.0
2017-08-23T10:20:15.059Z,17.0
2017-08-23T10:22:06.808Z,15.6
2017-08-23T10:23:08.458Z,16.9
2017-08-23T10:25:00.234Z,16.4
2017-08-23T10:26:01.885Z,15.5
2017-08-23T10:27:53.638Z,15.7
2017-08-23T10:28:55.282Z,15.3
2017-08-23T10:30:47.058Z,15.9
2017-08-23T10:31:48.730Z,15.4
2017-08-23T10:33:40.495Z,16.3
2017-08-23T10:34:42.136Z,17.2
2017-08-23T10:36:33.897Z,15.7
2017-08-23T10:37:35.546Z,16.0
2017-08-23T10:39:27.298Z,16.7
2017-08-23T10:40:28.949Z,16.6
2017-08-23T10:42:20.722Z,16.8
2017-08-23T10:43:22.381Z,16.3
2017-08-23T10:45:14.131Z,16.3
2017-08-23T10:46:15.779Z,17.2
2017-08-23T10:48:07.568Z,16.1
2017-08-23T10:49:09.211Z,16.8
2017-08-23T10:51:00.981Z,17.0
2017-08-23T10:52:02.623Z,16.3
2017-08-23T10:53:54.415Z,17.1
2017-08-23T10:54:56.062Z,16.9
2017-08-23T10:56:47.813Z,15.9
2017-08-23T10:57:49.455Z,16.3
2017-08-23T10:59:41.223Z,17.9
2017-08-23T11:00:42.872Z,17.1
2017-08-23T11:02:34.618Z,16.8
2017-08-23T11:03:36.263Z,16.7
2017-08-23T11:05:28.039Z,16.4
2017-08-23T11:06:29.692Z,16.7
2017-08-23T11:08:21.436Z,16.8
2017-08-23T11:09:23.082Z,17.1
2017-08-23T11:11:15.703Z,16.8
2017-08-23T11:12:17.348Z,17.1
2017-08-23T11:14:09.091Z,16.5
2017-08-23T11:15:10.732Z,16.1
2017-08-23T11:17:02.500Z,16.8
2017-08-23T11:18:04.147Z,16.2
2017-08-23T11:19:55.900Z,16.8
2017-08-23T11:20:57.551Z,15.6
2017-08-23T11:22:49.325Z,15.3
2017-08-23T11:23:50.987Z,15.6
2017-08-23T11:25:42.719Z,16.8
2017-08-23T11:26:44.374Z,15.0
2017-08-23T11:28:36.639Z,16.6
2017-08-23T11:29:38.281Z,16.3
2017-08-23T11:31:30.034Z,16.4
2017-08-23T11:32:31.682Z,15.3
2017-08-23T11:34:23.448Z,15.6
2017-08-23T11:35:25.095Z,16.3
2017-08-23T11:37:16.836Z,15.4
2017-08-23T11:38:18.478Z,15.1
2017-08-23T11:40:10.257Z,15.2
2017-08-23T11:41:11.899Z,15.1
2017-08-23T11:43:03.638Z,13.5
2017-08-23T11:44:05.293Z,13.9
2017-08-23T11:45:57.072Z,14.6
2017-08-23T11:46:58.718Z,15.7
2017-08-23T11:48:50.466Z,14.6
2017-08-23T11:49:52.120Z,14.4
2017-08-23T11:51:43.883Z,14.7
2017-08-23T11:52:45.529Z,14.6
2017-08-23T11:54:37.273Z,14.6
2017-08-23T11:55:38.919Z,13.6
2017-08-23T11:57:30.687Z,13.6
2017-08-23T11:58:32.331Z,13.1
2017-08-23T12:00:24.073Z,14.3
2017-08-23T12:01:25.725Z,13.7
2017-08-23T12:03:17.501Z,13.6
2017-08-23T12:04:19.143Z,13.9
2017-08-23T12:06:10.886Z,14.5
2017-08-23T12:07:12.524Z,13.5
2017-08-23T12:09:04.292Z,15.0
2017-08-23T12:10:05.934Z,15.7
2017-08-23T12:11:57.671Z,14.4
2017-08-23T12:12:59.321Z,15.8
2017-08-23T12:14:51.082Z,14.5
2017-08-23T12:15:52.731Z,15.1
2017-08-23T12:17:44.456Z,15.3
2017-08-23T12:18:46.098Z,14.5
2017-08-23T12:20:37.867Z,15.0
2017-08-23T12:21:39.516Z,15.7
2017-08-23T12:23:31.255Z,17.1
2017-08-23T12:24:32.896Z,17.0
2017-08-23T12:26:24.658Z,16.6
2017-08-23T12:27:26.306Z,16.9
2017-08-23T12:29:18.034Z,17.5
2017-08-23T12:30:19.688Z,17.5
2017-08-23T12:32:11.457Z,18.1
2017-08-23T12:33:13.094Z,17.2
2017-08-23T12:35:04.827Z,17.2
2017-08-23T12:36:06.477Z,18.3
2017-08-23T12:37:58.239Z,17.0
2017-08-23T12:38:59.879Z,16.9
2017-08-23T12:40:51.620Z,16.7
2017-08-23T12:41:53.255Z,16.6
2017-08-23T12:43:45.032Z,16.4
2017-08-23T12:44:46.663Z,16.9
2017-08-23T12:45:48.307Z,16.7
2017-08-23T12:46:49.949Z,16.1
2017-08-23T12:47:51.590Z,16.4
2017-08-23T12:48:53.236Z,16.5
2017-08-23T12:49:54.888Z,17.3
2017-08-23T12:50:56.534Z,16.5
2017-08-23T12:51:58.170Z,16.4
2017-08-23T12:52:59.824Z,16.9
2017-08-23T12:54:01.467Z,18.2
2017-08-23T12:55:03.104Z,19.0
2017-08-23T12:56:04.755Z,17.9
2017-08-23T12:57:06.401Z,18.3
2017-08-23T12:58:08.042Z,19.4
2017-08-23T12:59:09.683Z,18.7
2017-08-23T13:00:11.325Z,19.1
2017-08-23T13:01:12.963Z,19.4
2017-08-23T13:02:14.602Z,18.5
2017-08-23T13:03:16.242Z,19.8
2017-08-23T13:04:17.888Z,19.5
2017-08-23T13:05:19.538Z,19.0
2017-08-23T13:06:21.172Z,19.7
2017-08-23T13:07:22.810Z,19.9
2017-08-23T13:08:24.458Z,20.4
2017-08-23T13:09:26.093Z,19.8
2017-08-23T13:10:27.735Z,19.0
2017-08-23T13:11:29.389Z,20.1
2017-08-23T13:12:31.027Z,21.6
2017-08-23T13:13:32.667Z,19.8
2017-08-23T13:14:34.312Z,19.5
2017-08-23T13:15:35.949Z,21.2
2017-08-23T13:16:37.588Z,21.2
2017-08-23T13:17:39.232Z,21.8
2017-08-23T13:18:40.878Z,22.1
2017-08-23T13:19:42.522Z,22.6
2017-08-23T13:20:44.121Z,22.1
2017-08-23T13:21:45.761Z,23.1
2017-08-23T13:22:47.395Z,23.0
2017-08-23T13:23:49.049Z,22.5
2017-08-23T13:24:50.688Z,21.6
2017-08-23T13:25:52.329Z,22.3
2017-08-23T13:26:53.964Z,22.1
2017-08-23T13:27:55.596Z,23.0
2017-08-23T13:28:57.234Z,22.5
2017-08-23T13:29:58.872Z,24.3
2017-08-23T13:31:00.523Z,25.0
2017-08-23T13:32:02.159Z,25.3
2017-08-23T13:33:03.795Z,25.6
2017-08-23T13:34:05.445Z,25.3
2017-08-23T13:35:07.083Z,25.3
2017-08-23T13:36:08.715Z,25.3
2017-08-23T13:37:10.351Z,26.6
2017-08-23T13:38:12.000Z,27.2
2017-08-23T13:39:13.638Z,27.2
2017-08-23T13:40:15.269Z,27.0
2017-08-23T13:41:16.908Z,28.1
2017-08-23T13:42:18.548Z,28.2
2017-08-23T13:43:20.194Z,28.8
2017-08-23T13:44:21.840Z,29.3
2017-08-23T13:45:23.475Z,28.8
2017-08-23T13:46:25.109Z,28.0
2017-08-23T13:47:26.744Z,29.4
2017-08-23T13:48:28.386Z,28.6
2017-08-23T13:49:30.031Z,29.3
2017-08-23T13:50:31.663Z,28.8
2017-08-23T13:51:33.296Z,29.7
2017-08-23T13:52:34.931Z,28.5
2017-08-23T13:53:36.568Z,28.5
2017-08-23T13:54:38.216Z,28.6
2017-08-23T13:55:39.854Z,28.9
2017-08-23T13:56:41.488Z,28.6
2017-08-23T13:57:43.121Z,28.8
2017-08-23T13:58:44.768Z,28.7
2017-08-23T13:59:46.403Z,29.9
2017-08-23T14:00:48.036Z,29.8
2017-08-23T14:01:49.687Z,30.7
2017-08-23T14:02:51.328Z,30.2
2017-08-23T14:03:52.960Z,30.2
2017-08-23T14:04:54.592Z,30.7
2017-08-23T14:05:56.249Z,30.4
2017-08-23T14:06:57.877Z,31.9
2017-08-23T14:07:59.509Z,32.3
2017-08-23T14:09:01.146Z,32.5
2017-08-23T14:10:02.787Z,31.9
2017-08-23T14:11:04.429Z,32.4
2017-08-23T14:12:06.058Z,32.6
2017-08-23T14:13:07.691Z,31.9
2017-08-23T14:14:09.337Z,31.8
2017-08-23T14:15:10.971Z,32.5
2017-08-23T14:16:12.606Z,31.9
2017-08-23T14:17:14.243Z,32.9
2017-08-23T14:18:15.881Z,32.3
2017-08-23T14:19:17.524Z,32.1
2017-08-23T14:20:19.155Z,32.8
2017-08-23T14:21:20.786Z,32.0
2017-08-23T14:22:22.434Z,31.2
2017-08-23T14:23:24.073Z,31.1
2017-08-23T14:24:25.708Z,32.6
2017-08-23T14:25:27.350Z,32.6
2017-08-23T14:26:28.975Z,33.0
2017-08-23T14:27:30.608Z,33.5
2017-08-23T14:28:32.253Z,33.5
2017-08-23T14:29:33.898Z,33.5
2017-08-23T14:30:35.586Z,33.9
2017-08-23T14:31:37.121Z,33.3
2017-08-23T14:32:38.758Z,33.6
2017-08-23T14:33:40.389Z,33.2
2017-08-23T14:34:41.941Z,32.9
2017-08-23T14:35:43.573Z,33.4
2017-08-23T14:36:45.218Z,33.4
2017-08-23T14:37:46.862Z,33.8
2017-08-23T14:38:48.496Z,33.6
2017-08-23T14:39:50.129Z,33.7
2017-08-23T14:40:51.767Z,34.0
2017-08-23T14:41:53.399Z,34.2
2017-08-23T14:42:55.033Z,33.9
2017-08-23T14:43:56.666Z,33.6
2017-08-23T14:44:58.307Z,34.6
2017-08-23T14:45:59.946Z,33.9
2017-08-23T14:47:01.574Z,34.6
2017-08-23T14:48:03.206Z,33.9
2017-08-23T14:49:04.851Z,34.8
2017-08-23T14:50:06.486Z,33.4
2017-08-23T14:51:08.121Z,32.5
2017-08-23T14:52:09.753Z,32.6
2017-08-23T14:53:11.394Z,33.0
2017-08-23T14:54:13.029Z,33.4
2017-08-23T14:55:14.661Z,32.9
2017-08-23T14:56:16.290Z,32.8
2017-08-23T14:57:17.937Z,32.3
2017-08-23T14:58:19.576Z,33.6
2017-08-23T14:59:21.220Z,32.8
2017-08-23T15:00:22.855Z,33.7
2017-08-23T15:01:24.484Z,33.0
2017-08-23T15:02:26.119Z,32.9
2017-08-23T15:03:27.756Z,33.8
2017-08-23T15:04:29.392Z,33.0
2017-08-23T15:05:31.022Z,32.5
2017-08-23T15:06:32.661Z,32.3
2017-08-23T15:07:34.296Z,32.6
2017-08-23T15:08:35.928Z,33.0
2017-08-23T15:09:37.570Z,33.4
2017-08-23T15:10:39.213Z,33.4
2017-08-23T15:11:40.842Z,33.4
2017-08-23T15:12:42.477Z,33.2
2017-08-23T15:13:44.117Z,33.5
2017-08-23T15:14:45.762Z,32.4
2017-08-23T15:15:48.319Z,33.5
2017-08-23T15:16:49.951Z,33.5
2017-08-23T15:17:51.588Z,32.6
2017-08-23T15:18:53.224Z,32.6
2017-08-23T15:19:54.856Z,32.3
2017-08-23T15:20:56.489Z,32.8
2017-08-23T15:21:58.139Z,33.6
2017-08-23T15:22:59.766Z,33.1
2017-08-23T15:24:01.407Z,32.4
2017-08-23T15:25:03.050Z,32.4
2017-08-23T15:26:04.678Z,32.5
2017-08-23T15:27:06.311Z,32.9
2017-08-23T15:28:07.958Z,33.4
2017-08-23T15:29:09.598Z,33.5
2017-08-23T15:30:11.226Z,33.2
2017-08-23T15:31:12.865Z,33.0
2017-08-23T15:32:14.496Z,33.4
2017-08-23T15:33:16.135Z,33.6
2017-08-23T15:34:17.775Z,33.8
2017-08-23T15:35:19.422Z,33.8
2017-08-23T15:36:21.054Z,33.8
2017-08-23T15:37:22.688Z,33.4
2017-08-23T15:38:24.326Z,33.8
2017-08-23T15:39:25.953Z,34.1
2017-08-23T15:40:27.597Z,34.2
2017-08-23T15:41:29.234Z,34.5
2017-08-23T15:42:30.867Z,34.2
2017-08-23T15:43:32.507Z,34.2
2017-08-23T15:44:34.140Z,34.0
2017-08-23T15:45:35.783Z,33.8
2017-08-23T15:46:37.418Z,33.6
2017-08-23T15:47:39.047Z,34.0
2017-08-23T15:48:40.684Z,34.7
2017-08-23T15:49:42.330Z,34.6
2017-08-23T15:50:43.962Z,33.8
2017-08-23T15:51:45.591Z,34.0
2017-08-23T15:52:47.236Z,34.5
2017-08-23T15:53:48.874Z,34.3
2017-08-23T15:54:50.504Z,34.5
2017-08-23T15:55:52.143Z,35.1
2017-08-23T15:56:53.777Z,35.0
2017-08-23T15:57:55.414Z,34.7
2017-08-23T15:58:57.048Z,35.2
2017-08-23T15:59:58.681Z,35.1
2017-08-23T16:01:00.313Z,35.6
2017-08-23T16:02:01.943Z,35.4
2017-08-23T16:03:03.589Z,36.1
2017-08-23T16:04:05.225Z,35.3
2017-08-23T16:05:06.870Z,35.5
2017-08-23T16:06:08.504Z,35.5
2017-08-23T16:07:10.136Z,36.1
2017-08-23T16:08:11.771Z,35.7
2017-08-23T16:09:13.408Z,36.1
2017-08-23T16:10:15.050Z,35.4
2017-08-23T16:11:16.683Z,35.8
2017-08-23T16:12:18.322Z,35.4
2017-08-23T16:13:19.957Z,35.1
2017-08-23T16:14:21.597Z,35.3
2017-08-23T16:15:23.226Z,35.4
2017-08-23T16:16:24.861Z,35.4
2017-08-23T16:17:26.508Z,35.3
2017-08-23T16:18:28.144Z,35.4
2017-08-23T16:19:29.779Z,35.4
2017-08-23T16:20:31.412Z,36.2
2017-08-23T16:21:33.054Z,36.0
2017-08-23T16:22:34.686Z,36.3
2017-08-23T16:23:36.319Z,35.8
2017-08-23T16:24:37.953Z,35.3
2017-08-23T16:37:25.667Z,40.1
2017-08-23T16:38:27.302Z,39.0
2017-08-23T16:40:19.015Z,40.5
2017-08-23T16:41:20.655Z,40.1
2017-08-23T16:42:22.287Z,38.5
2017-08-23T16:43:23.914Z,41.4
2017-08-23T16:44:25.552Z,40.7
2017-08-23T16:45:27.206Z,39.9
2017-08-23T16:46:28.828Z,39.8
2017-08-23T16:47:30.452Z,39.0
2017-08-23T16:48:32.093Z,38.5
2017-08-23T16:49:33.727Z,38.9
2017-08-23T16:50:35.368Z,39.1
2017-08-23T16:51:36.997Z,38.9
2017-08-23T16:52:38.643Z,39.1
2017-08-23T16:53:40.278Z,39.9
2017-08-23T16:54:41.907Z,40.3
2017-08-23T16:55:43.539Z,39.4
2017-08-23T16:56:45.176Z,40.6
2017-08-23T16:57:46.815Z,40.3
2017-08-23T16:58:48.465Z,40.2
2017-08-23T16:59:50.085Z,40.3
2017-08-23T17:00:51.728Z,40.2
2017-08-23T17:01:53.364Z,40.5
2017-08-23T17:02:54.989Z,40.5
2017-08-23T17:03:56.622Z,40.4
2017-08-23T17:04:58.853Z,40.4
2017-08-23T17:06:00.492Z,41.0
2017-08-23T17:07:02.127Z,40.6
2017-08-23T17:08:03.772Z,41.2
2017-08-23T17:09:05.403Z,40.8
2017-08-23T17:10:07.033Z,41.4
2017-08-23T17:11:08.675Z,41.2
2017-08-23T17:12:10.309Z,41.4
2017-08-23T17:13:11.940Z,41.2
2017-08-23T17:14:13.570Z,42.0
2017-08-23T17:15:15.210Z,42.3
2017-08-23T17:16:16.851Z,42.3
2017-08-23T17:17:18.478Z,41.5
2017-08-23T17:18:20.109Z,42.3
2017-08-23T17:19:21.749Z,42.7
2017-08-23T17:20:23.385Z,42.7
2017-08-23T17:21:25.013Z,42.7
2017-08-23T17:22:26.644Z,42.5
2017-08-23T17:23:28.291Z,42.6
2017-08-23T17:24:29.921Z,42.7
2017-08-23T17:25:31.551Z,42.6
2017-08-23T17:26:33.179Z,42.6
2017-08-23T17:27:34.814Z,42.6
2017-08-23T17:28:36.452Z,42.5
2017-08-23T17:29:38.086Z,42.8
2017-08-23T17:30:39.720Z,43.4
2017-08-23T17:31:41.366Z,43.3
2017-08-23T17:32:42.994Z,43.4
2017-08-23T17:33:44.623Z,43.5
2017-08-23T17:34:46.253Z,43.4
2017-08-23T17:35:47.892Z,43.5
2017-08-23T17:36:49.532Z,43.5
2017-08-23T17:37:51.162Z,43.4
2017-08-23T17:38:52.798Z,43.9
2017-08-23T17:39:54.425Z,44.8
2017-08-23T17:40:56.056Z,45.2
2017-08-23T17:41:57.693Z,44.8
2017-08-23T17:42:59.331Z,44.8
2017-08-23T17:44:00.965Z,44.7
2017-08-23T17:45:02.612Z,45.0
2017-08-23T17:46:04.250Z,44.5
2017-08-23T17:47:05.885Z,44.6
2017-08-23T17:48:07.513Z,44.5
2017-08-23T17:49:09.156Z,44.9
2017-08-23T17:50:10.784Z,44.8
2017-08-23T17:51:12.419Z,45.1
2017-08-23T17:52:14.067Z,44.3
2017-08-23T17:53:15.701Z,45.1
2017-08-23T17:54:17.330Z,45.2
2017-08-23T17:55:18.957Z,45.4
2017-08-23T17:56:20.588Z,45.7
2017-08-23T17:57:22.223Z,45.7
2017-08-23T17:58:23.852Z,45.5
2017-08-23T17:59:25.482Z,46.0
2017-08-23T18:00:27.114Z,45.7
2017-08-23T18:01:28.752Z,46.3
2017-08-23T18:02:30.376Z,46.0
2017-08-23T18:03:32.008Z,46.0
2017-08-23T18:04:33.648Z,46.2
2017-08-23T18:05:35.271Z,46.3
2017-08-23T18:06:36.915Z,46.3
2017-08-23T18:07:38.544Z,46.3
2017-08-23T18:08:40.169Z,46.5
2017-08-23T18:09:41.797Z,46.5
2017-08-23T18:10:43.431Z,46.1
2017-08-23T18:11:45.072Z,46.4
2017-08-23T18:12:46.704Z,47.0
2017-08-23T18:13:48.345Z,46.6
2017-08-23T18:14:49.970Z,47.6
2017-08-23T18:15:51.598Z,46.6
2017-08-23T18:16:53.267Z,47.4
2017-08-23T18:17:54.870Z,47.5
2017-08-23T18:18:56.497Z,47.3
2017-08-23T18:19:58.128Z,47.3
2017-08-23T18:20:59.757Z,47.7
2017-08-23T18:22:01.383Z,48.2
2017-08-23T18:23:03.018Z,48.8
2017-08-23T18:24:04.655Z,48.2
2017-08-23T18:25:06.284Z,49.1
2017-08-23T18:26:07.909Z,49.0
2017-08-23T18:27:09.550Z,49.6
2017-08-23T18:28:11.186Z,50.5
2017-08-23T18:29:12.808Z,49.8
2017-08-23T18:30:14.435Z,50.3
2017-08-23T18:31:16.074Z,50.5
2017-08-23T18:32:17.702Z,49.9
2017-08-23T18:33:19.328Z,50.5
2017-08-23T18:34:20.953Z,51.9
2017-08-23T18:35:22.587Z,51.6
2017-08-23T18:36:24.221Z,51.6
2017-08-23T18:37:25.856Z,51.7
2017-08-23T18:38:27.482Z,51.8
2017-08-23T18:39:29.106Z,51.8
2017-08-23T18:40:30.760Z,52.7
2017-08-23T18:41:32.365Z,52.8
2017-08-23T18:42:34.002Z,52.6
2017-08-23T18:43:35.625Z,52.6
2017-08-23T18:44:37.254Z,53.2
2017-08-23T18:45:38.876Z,53.5
2017-08-23T18:46:40.506Z,53.8
2017-08-23T18:47:42.140Z,54.6
2017-08-23T18:48:43.774Z,54.4
2017-08-23T18:49:45.399Z,54.2
2017-08-23T18:50:47.023Z,54.7
2017-08-23T18:51:48.661Z,55.9
2017-08-23T18:52:50.292Z,55.9
2017-08-23T18:53:51.913Z,55.6
2017-08-23T18:54:53.547Z,55.7
2017-08-23T18:55:55.176Z,55.7
2017-08-23T18:56:56.803Z,55.8
2017-08-23T18:57:58.431Z,56.3
2017-08-23T18:59:00.060Z,56.2
2017-08-23T19:00:01.694Z,57.1
2017-08-23T19:01:03.315Z,57.2
2017-08-23T19:02:04.940Z,57.3
2017-08-23T19:03:06.571Z,58.0
2017-08-23T19:04:08.209Z,58.3
2017-08-23T19:05:09.827Z,58.5
2017-08-23T19:06:11.448Z,58.0
2017-08-23T19:07:13.082Z,58.3
2017-08-23T19:08:14.713Z,58.1
2017-08-23T19:09:16.336Z,58.1
2017-08-23T19:10:17.964Z,57.4
2017-08-23T19:11:19.595Z,58.5
2017-08-23T19:12:21.232Z,58.9
2017-08-23T19:13:22.854Z,59.6
2017-08-23T19:14:24.473Z,58.8
2017-08-23T19:15:26.110Z,59.5
2017-08-23T19:16:27.737Z,59.2
2017-08-23T19:17:29.363Z,59.3
2017-08-23T19:18:30.993Z,59.6
2017-08-23T19:19:32.615Z,60.1
2017-08-23T19:20:34.235Z,60.1
2017-08-23T19:21:35.870Z,59.8
2017-08-23T19:22:37.507Z,59.3
2017-08-23T19:23:39.127Z,60.7
2017-08-23T19:24:40.754Z,59.9
2017-08-23T19:25:42.384Z,59.9
2017-08-23T19:26:44.005Z,59.9
2017-08-23T19:27:45.629Z,60.1
2017-08-23T19:28:47.260Z,60.5
2017-08-23T19:29:48.896Z,61.4
2017-08-23T19:30:50.530Z,61.2
2017-08-23T19:31:52.153Z,61.4
2017-08-23T19:32:53.781Z,61.7
2017-08-23T19:33:55.410Z,61.2
2017-08-23T19:34:57.032Z,61.5
2017-08-23T19:35:58.656Z,61.9
2017-08-23T19:37:00.294Z,61.2
2017-08-23T19:38:01.921Z,61.8
2017-08-23T19:39:03.543Z,61.7
2017-08-23T19:40:05.170Z,61.9
2017-08-23T19:41:06.790Z,62.1
2017-08-23T19:42:08.427Z,61.9
2017-08-23T19:43:10.049Z,62.4
2017-08-23T19:44:11.672Z,62.3
2017-08-23T19:45:13.311Z,61.4
2017-08-23T19:46:14.937Z,61.9
2017-08-23T19:47:16.584Z,61.7
2017-08-23T19:48:18.185Z,61.9
2017-08-23T19:49:19.809Z,61.7
2017-08-23T19:50:21.436Z,61.8
2017-08-23T19:51:23.061Z,62.4
2017-08-23T19:52:24.696Z,62.4
2017-08-23T19:53:26.318Z,62.5
2017-08-23T19:54:27.947Z,61.9
2017-08-23T19:55:29.584Z,61.7
2017-08-23T19:56:31.209Z,61.6
2017-08-23T19:57:32.830Z,61.6
2017-08-23T19:58:34.456Z,62.1
2017-08-23T19:59:36.086Z,62.6
2017-08-23T20:00:37.712Z,61.8
2017-08-23T20:01:39.338Z,62.4
2017-08-23T20:02:40.974Z,62.3
2017-08-23T20:03:42.608Z,62.4
2017-08-23T20:04:44.227Z,62.4
2017-08-23T20:05:45.852Z,62.0
2017-08-23T20:06:47.482Z,62.1
2017-08-23T20:07:49.119Z,62.3
2017-08-23T20:08:50.742Z,61.8
2017-08-23T20:09:52.365Z,61.9
2017-08-23T20:10:53.992Z,62.3
2017-08-23T20:11:55.615Z,62.5
2017-08-23T20:12:57.237Z,62.1
2017-08-23T20:13:58.864Z,62.6
2017-08-23T20:15:00.502Z,62.4
2017-08-23T20:16:02.127Z,62.3
2017-08-23T20:17:03.755Z,62.2
2017-08-23T20:18:05.391Z,62.4
2017-08-23T20:19:07.012Z,61.9
2017-08-23T20:20:09.229Z,61.9
2017-08-23T20:21:10.866Z,61.2
2017-08-23T20:22:12.495Z,61.8
2017-08-23T20:23:14.122Z,61.1
2017-08-23T20:24:15.748Z,60.8
2017-08-23T20:25:17.370Z,60.6
2017-08-23T20:26:18.993Z,59.9
2017-08-23T20:27:20.627Z,60.1
2017-08-23T20:28:22.260Z,60.2
2017-08-23T20:29:23.883Z,59.6
2017-08-23T20:30:25.512Z,59.8
2017-08-23T20:31:27.140Z,59.6
2017-08-23T20:32:28.765Z,60.2
2017-08-23T20:33:30.402Z,60.4
2017-08-23T20:34:32.024Z,60.5
2017-08-23T20:35:33.650Z,60.8
2017-08-23T20:36:35.280Z,60.5
2017-08-23T20:37:36.908Z,60.7
2017-08-23T20:38:38.542Z,60.4
2017-08-23T20:39:40.168Z,61.1
2017-08-23T20:40:41.799Z,60.5
2017-08-23T20:41:43.425Z,61.2
2017-08-23T20:42:45.051Z,61.7
2017-08-23T20:43:46.677Z,61.3
2017-08-23T20:44:48.299Z,61.8
2017-08-23T20:45:49.933Z,61.4
2017-08-23T20:46:51.559Z,61.3
2017-08-23T20:47:53.181Z,61.7
2017-08-23T20:48:54.808Z,61.6
2017-08-23T20:49:56.430Z,61.7
2017-08-23T20:50:58.070Z,61.6
2017-08-23T20:51:59.694Z,61.5
2017-08-23T20:53:01.313Z,61.8
2017-08-23T20:54:02.937Z,62.0
2017-08-23T20:55:04.563Z,61.7
2017-08-23T20:56:06.200Z,61.5
2017-08-23T20:57:07.827Z,61.4
2017-08-23T20:58:09.462Z,61.9
2017-08-23T20:59:11.086Z,61.2
2017-08-23T21:00:12.710Z,61.4
2017-08-23T21:01:14.345Z,61.4
2017-08-23T21:02:15.969Z,61.2
2017-08-23T21:03:17.602Z,61.6
2017-08-23T21:04:19.223Z,61.6
2017-08-23T21:05:20.847Z,61.7
2017-08-23T21:06:22.485Z,61.4
2017-08-23T21:07:24.110Z,61.6
2017-08-23T21:08:25.739Z,61.2
2017-08-23T21:09:27.357Z,61.6
2017-08-23T21:10:28.987Z,61.6
2017-08-23T21:11:30.620Z,61.7
2017-08-23T21:12:32.243Z,61.7
2017-08-23T21:13:33.880Z,61.7
2017-08-23T21:14:35.499Z,61.7
2017-08-23T21:15:37.122Z,61.8
2017-08-23T21:16:38.750Z,61.4
2017-08-23T21:17:40.374Z,61.6
2017-08-23T21:18:41.996Z,61.7
2017-08-23T21:19:43.628Z,61.6
2017-08-23T21:20:45.266Z,61.7
2017-08-23T21:21:46.896Z,61.6
2017-08-23T21:22:48.517Z,61.7
2017-08-23T21:23:50.141Z,61.5
2017-08-23T21:24:51.769Z,61.3
2017-08-23T21:25:53.393Z,61.7
2017-08-23T21:26:55.018Z,61.3
2017-08-23T21:27:56.649Z,61.4